Time;durP1;ratioP1;P1;durP2;ratioP2;P2;SDS_P1;SDS_P2;PMS_P1;PMS_P2;Temp;Humidity;BMP_temperature;BMP_pressure;BME280_temperature;BME280_humidity;BME280_pressure;Samples;Min_cycle;Max_cycle;Signal;HPM_P1;HPM_P2
2022/06/14 00:02:58;;;;;;;1.33;0.82;;;;;;;12.14;100.00;102057.19;6374039;27;20516;-76
2022/06/14 00:06:02;;;;;;;3.70;1.05;;;;;;;12.10;100.00;102060.84;6374507;27;20051;-75
2022/06/14 00:09:04;;;;;;;0.63;0.60;;;;;;;12.13;100.00;102062.50;6375121;27;20039;-76
2022/06/14 00:12:07;;;;;;;1.33;0.73;;;;;;;12.17;100.00;102064.09;6374553;27;20050;-75
2022/06/14 00:15:10;;;;;;;1.23;0.77;;;;;;;12.19;100.00;102065.75;6374463;27;20047;-76
2022/06/14 00:18:12;;;;;;;2.38;0.90;;;;;;;12.23;100.00;102063.00;6374132;27;20054;-76
2022/06/14 00:21:14;;;;;;;5.80;1.10;;;;;;;12.16;100.00;102067.66;6374197;27;20514;-76
2022/06/14 00:24:15;;;;;;;2.05;0.80;;;;;;;12.10;100.00;102068.75;6374351;27;20050;-75
2022/06/14 00:27:17;;;;;;;1.98;0.70;;;;;;;12.09;100.00;102058.28;6375657;27;20058;-76
2022/06/14 00:30:21;;;;;;;2.03;0.70;;;;;;;12.11;100.00;102048.53;6374115;27;20054;-75
2022/06/14 00:33:22;;;;;;;2.25;0.65;;;;;;;12.07;100.00;102046.91;6375499;27;20054;-75
2022/06/14 00:36:28;;;;;;;5.25;0.80;;;;;;;12.01;100.00;102041.91;6374166;27;20060;-76
2022/06/14 00:39:29;;;;;;;3.17;1.10;;;;;;;11.92;100.00;102030.78;6374150;27;20039;-76
2022/06/14 00:42:30;;;;;;;3.08;0.70;;;;;;;11.77;100.00;102025.22;6373996;27;20517;-75
2022/06/14 00:46:07;;;;;;;0.80;0.70;;;;;;;11.66;100.00;102037.00;6373731;27;20084;-76
2022/06/14 00:49:16;;;;;;;0.88;0.82;;;;;;;11.58;100.00;102025.91;6374058;27;20054;-75
2022/06/14 00:52:21;;;;;;;0.98;0.70;;;;;;;11.47;100.00;102032.47;6373590;27;20275;-75
2022/06/14 00:55:27;;;;;;;1.88;1.10;;;;;;;11.36;100.00;102038.16;6375161;27;20050;-75
2022/06/14 00:58:33;;;;;;;4.88;0.80;;;;;;;11.30;100.00;102040.97;6373673;27;20070;-75
2022/06/14 01:01:38;;;;;;;0.52;0.52;;;;;;;11.20;100.00;102040.44;6373589;27;20066;-76
2022/06/14 01:04:41;;;;;;;4.88;0.70;;;;;;;11.12;100.00;102040.69;6373439;27;20440;-75
2022/06/14 01:07:47;;;;;;;0.63;0.60;;;;;;;11.09;100.00;102037.34;6373842;27;20051;-75
2022/06/14 01:10:49;;;;;;;1.98;0.90;;;;;;;11.00;100.00;102046.41;6372896;27;20054;-76
2022/06/14 01:13:51;;;;;;;3.78;0.90;;;;;;;10.92;100.00;102054.56;6373261;27;20051;-76
2022/06/14 01:16:54;;;;;;;1.08;0.65;;;;;;;10.96;100.00;102051.81;6373270;27;20485;-75
2022/06/14 01:19:55;;;;;;;1.70;0.82;;;;;;;10.92;100.00;102046.66;6373180;27;20051;-75
2022/06/14 01:22:59;;;;;;;0.70;0.70;;;;;;;10.86;100.00;102038.13;6373261;27;20080;-76
2022/06/14 01:26:08;;;;;;;3.15;0.90;;;;;;;10.80;100.00;102039.19;6373963;27;20413;-75
2022/06/14 01:29:10;;;;;;;4.47;0.75;;;;;;;10.76;100.00;102039.31;6372013;27;20054;-75
2022/06/14 01:32:14;;;;;;;1.00;0.80;;;;;;;10.71;100.00;102047.38;6372659;27;20069;-76
2022/06/14 01:35:21;;;;;;;1.67;1.00;;;;;;;10.65;100.00;102034.44;6372543;27;20044;-75
2022/06/14 01:38:25;;;;;;;0.77;0.65;;;;;;;10.59;100.00;102025.00;6372852;27;20047;-75
2022/06/14 01:41:39;;;;;;;1.25;0.95;;;;;;;10.60;100.00;102028.47;6372417;27;20050;-75
2022/06/14 01:44:46;;;;;;;2.78;1.25;;;;;;;10.52;100.00;102033.97;6372337;27;20054;-75
2022/06/14 01:47:54;;;;;;;1.00;0.68;;;;;;;10.53;100.00;102030.44;6372839;27;20053;-75
2022/06/14 01:54:32;;;;;;;0.65;0.65;;;;;;;10.46;100.00;102026.28;6372210;27;20051;-75
2022/06/14 01:57:39;;;;;;;0.90;0.60;;;;;;;10.47;100.00;102029.78;6384138;27;20399;-75
2022/06/14 02:00:49;;;;;;;8.57;1.20;;;;;;;10.46;100.00;102030.69;6397719;27;20049;-74
2022/06/14 02:07:24;;;;;;;0.98;0.70;;;;;;;10.33;100.00;102041.59;6372433;27;20049;-76
2022/06/14 02:10:35;;;;;;;2.33;1.10;;;;;;;10.34;100.00;102039.81;6372136;27;20043;-75
2022/06/14 02:13:42;;;;;;;2.00;0.80;;;;;;;10.29;100.00;102054.88;6372003;27;20043;-75
2022/06/14 02:16:52;;;;;;;3.75;1.05;;;;;;;10.27;100.00;102057.56;6372205;27;20508;-76
2022/06/14 02:20:00;;;;;;;2.10;1.02;;;;;;;10.22;100.00;102062.06;6371651;27;20043;-76
2022/06/14 02:23:05;;;;;;;8.48;1.40;;;;;;;10.20;100.00;102063.00;6372065;28;20058;-76
2022/06/14 02:26:14;;;;;;;6.40;0.90;;;;;;;10.15;100.00;102063.16;6371699;28;20176;-76
2022/06/14 02:29:21;;;;;;;5.63;0.98;;;;;;;10.14;100.00;102062.28;6394757;27;20051;-75
2022/06/14 02:32:27;;;;;;;1.90;0.80;;;;;;;10.13;100.00;102050.06;6397449;27;20047;-76
2022/06/14 02:35:34;;;;;;;3.85;1.20;;;;;;;10.06;100.00;102052.91;6396789;27;20471;-76
2022/06/14 02:38:41;;;;;;;2.47;1.17;;;;;;;10.01;100.00;102050.44;6397774;27;20054;-75
2022/06/14 02:41:50;;;;;;;5.93;1.13;;;;;;;9.97;100.00;102055.81;6402059;27;20057;-75
2022/06/14 02:44:56;;;;;;;2.80;1.05;;;;;;;9.90;100.00;102053.38;6400864;27;20046;-75
2022/06/14 02:48:04;;;;;;;1.13;0.88;;;;;;;9.87;100.00;102050.00;6402653;27;20047;-75
2022/06/14 02:51:09;;;;;;;1.10;0.90;;;;;;;9.87;100.00;102050.00;6402134;27;20046;-75
2022/06/14 02:54:16;;;;;;;0.80;0.80;;;;;;;9.85;100.00;102050.00;6402321;27;20070;-75
2022/06/14 02:57:28;;;;;;;1.23;0.80;;;;;;;9.84;100.00;102045.66;6400521;27;20086;-75
2022/06/14 03:00:37;;;;;;;1.42;0.80;;;;;;;9.82;100.00;102044.00;6386024;27;20051;-76
2022/06/14 03:03:44;;;;;;;1.25;0.75;;;;;;;9.84;100.00;102057.94;6376666;27;20047;-75
2022/06/14 03:06:51;;;;;;;1.48;1.13;;;;;;;9.84;100.00;102053.53;6376757;27;20043;-75
2022/06/14 03:09:53;;;;;;;4.03;1.05;;;;;;;9.82;100.00;102060.63;6375552;27;20409;-75
2022/06/14 03:13:05;;;;;;;2.47;0.98;;;;;;;9.80;100.00;102067.66;6376708;27;20046;-75
2022/06/14 03:16:19;;;;;;;1.35;1.10;;;;;;;9.82;100.00;102059.78;6375789;27;20456;-75
2022/06/14 03:19:25;;;;;;;1.85;1.40;;;;;;;9.85;100.00;102060.50;6376386;27;20051;-75
2022/06/14 03:22:40;;;;;;;3.33;1.15;;;;;;;9.87;100.00;102071.84;6375679;27;20047;-76
2022/06/14 03:25:46;;;;;;;1.90;1.35;;;;;;;9.91;100.00;102070.00;6375810;27;20047;-76
2022/06/14 03:28:55;;;;;;;2.83;1.10;;;;;;;9.93;100.00;102059.44;6392491;27;20486;-75
2022/06/14 03:32:02;;;;;;;3.83;1.55;;;;;;;9.93;100.00;102069.94;6401575;27;20054;-75
2022/06/14 03:35:08;;;;;;;2.17;0.98;;;;;;;9.95;100.00;102070.75;6401105;27;20521;-75
2022/06/14 03:38:13;;;;;;;2.42;1.40;;;;;;;9.92;100.00;102066.47;6401590;27;20046;-75
2022/06/14 03:41:19;;;;;;;4.47;1.40;;;;;;;9.96;100.00;102064.63;6400891;27;20046;-75
2022/06/14 03:44:24;;;;;;;1.88;1.40;;;;;;;9.98;100.00;102058.38;6377511;27;20445;-75
2022/06/14 03:47:27;;;;;;;2.03;0.95;;;;;;;10.01;100.00;102057.44;6375563;27;20050;-75
2022/06/14 03:50:40;;;;;;;4.53;1.15;;;;;;;10.01;100.00;102060.94;6374863;27;20053;-75
2022/06/14 03:54:05;;;;;;;1.95;1.25;;;;;;;10.09;100.00;102053.69;6370824;27;20410;-76
2022/06/14 03:57:18;;;;;;;3.25;1.33;;;;;;;10.15;100.00;102058.75;6372161;27;20740;-76
2022/06/14 04:00:28;;;;;;;2.47;1.20;;;;;;;10.21;100.00;102054.22;6370793;27;20066;-75
2022/06/14 04:03:51;;;;;;;6.97;1.50;;;;;;;10.24;100.00;102052.38;6373812;27;20050;-75
2022/06/14 04:07:00;;;;;;;1.95;1.13;;;;;;;10.26;100.00;102045.31;6372859;27;20045;-75
2022/06/14 04:10:09;;;;;;;2.60;1.45;;;;;;;10.25;100.00;102051.47;6370704;27;20043;-75
2022/06/14 04:13:16;;;;;;;1.98;1.05;;;;;;;10.21;100.00;102048.97;6373538;27;20051;-75
2022/06/14 04:16:26;;;;;;;3.63;1.20;;;;;;;10.19;100.00;102058.66;6372716;27;20541;-75
2022/06/14 04:19:50;;;;;;;2.75;1.50;;;;;;;10.21;100.00;102062.09;6373081;27;20478;-75
2022/06/14 04:23:02;;;;;;;1.88;1.52;;;;;;;10.21;100.00;102055.06;6372133;27;20047;-75
2022/06/14 04:26:14;;;;;;;1.65;1.35;;;;;;;10.25;100.00;102053.25;6370755;27;20054;-76
2022/06/14 04:29:21;;;;;;;1.77;1.27;;;;;;;10.28;100.00;102054.00;6376437;27;20039;-75
2022/06/14 04:32:31;;;;;;;2.47;1.20;;;;;;;10.37;100.00;102052.88;6372508;27;20066;-76
2022/06/14 04:35:38;;;;;;;5.50;1.20;;;;;;;10.41;100.00;102057.13;6372231;27;20050;-75
2022/06/14 04:38:44;;;;;;;5.95;1.55;;;;;;;10.43;100.00;102062.31;6370256;27;20051;-75
2022/06/14 04:41:50;;;;;;;1.92;1.27;;;;;;;10.42;100.00;102056.22;6372298;27;20047;-75
2022/06/14 04:44:55;;;;;;;5.70;1.30;;;;;;;10.40;100.00;102053.66;6372296;27;20043;-76
2022/06/14 04:48:05;;;;;;;1.98;1.33;;;;;;;10.40;100.00;102052.75;6372435;27;20043;-76
2022/06/14 04:51:09;;;;;;;;;;;;;;;10.45;100.00;102066.63;6372538;27;20039;-75
2022/06/14 04:54:17;;;;;;;5.85;1.40;;;;;;;10.49;100.00;102072.63;6371958;27;19923;-75
2022/06/14 04:57:23;;;;;;;2.38;1.00;;;;;;;10.49;100.00;102075.25;6372607;27;20054;-76
2022/06/14 05:00:29;;;;;;;1.73;1.45;;;;;;;10.54;100.00;102074.22;6371830;27;20049;-75
2022/06/14 05:03:37;;;;;;;2.72;1.50;;;;;;;10.60;100.00;102071.41;6372081;27;20425;-76
2022/06/14 05:06:45;;;;;;;4.78;1.48;;;;;;;10.63;100.00;102081.81;6372547;27;20061;-75
2022/06/14 05:09:52;;;;;;;3.28;1.73;;;;;;;10.65;100.00;102077.34;6373281;27;20046;-75
2022/06/14 05:12:58;;;;;;;2.83;1.33;;;;;;;10.66;100.00;102071.19;6373412;27;20105;-75
2022/06/14 05:16:07;;;;;;;6.55;1.60;;;;;;;10.68;100.00;102076.41;6368526;27;20047;-75
2022/06/14 05:19:15;;;;;;;1.25;1.10;;;;;;;10.72;100.00;102080.66;6372598;27;20054;-76
2022/06/14 05:22:21;;;;;;;2.58;1.33;;;;;;;10.71;100.00;102078.91;6373231;27;20055;-76
2022/06/14 05:25:23;;;;;;;3.83;2.13;;;;;;;10.74;100.00;102078.84;6372657;27;20051;-76
2022/06/14 05:28:33;;;;;;;3.45;1.83;;;;;;;10.79;100.00;102079.53;6373329;27;20058;-76
2022/06/14 05:31:41;;;;;;;4.75;1.83;;;;;;;10.85;100.00;102078.47;6372610;27;20046;-76
2022/06/14 05:34:53;;;;;;;3.95;2.22;;;;;;;10.93;100.00;102079.06;6372829;27;20069;-76
2022/06/14 05:38:10;;;;;;;3.15;1.95;;;;;;;10.96;100.00;102086.03;6373157;27;20135;-76
2022/06/14 05:41:17;;;;;;;2.20;1.27;;;;;;;10.97;100.00;102082.47;6372259;27;20047;-76
2022/06/14 05:44:27;;;;;;;5.30;1.48;;;;;;;10.97;100.00;102083.31;6372421;27;20066;-76
2022/06/14 05:47:36;;;;;;;3.22;1.80;;;;;;;11.02;100.00;102097.19;6372608;27;20511;-76
2022/06/14 05:50:44;;;;;;;5.18;1.45;;;;;;;11.06;100.00;102104.06;6372185;27;20067;-76
2022/06/14 05:53:50;;;;;;;5.63;1.90;;;;;;;11.11;100.00;102098.66;6372246;27;20071;-77
2022/06/14 05:56:56;;;;;;;5.82;1.85;;;;;;;11.15;100.00;102101.13;6373824;27;20512;-76
2022/06/14 06:00:02;;;;;;;3.97;1.90;;;;;;;11.21;100.00;102099.19;6371170;27;20039;-76
2022/06/14 06:03:09;;;;;;;2.92;1.23;;;;;;;11.25;100.00;102080.59;6370322;27;20075;-76
2022/06/14 06:06:14;;;;;;;5.00;1.83;;;;;;;11.25;100.00;102096.41;6372021;27;20047;-76
2022/06/14 06:09:20;;;;;;;2.28;1.77;;;;;;;11.27;100.00;102105.13;6372133;27;20047;-76
2022/06/14 06:12:28;;;;;;;4.57;1.83;;;;;;;11.33;100.00;102093.50;6372129;27;20050;-76
2022/06/14 06:15:35;;;;;;;10.10;1.90;;;;;;;11.48;100.00;102092.97;6370294;27;20074;-76
2022/06/14 06:18:41;;;;;;;4.85;1.80;;;;;;;11.57;100.00;102102.31;6372095;27;20043;-76
2022/06/14 06:21:50;;;;;;;2.97;1.38;;;;;;;11.70;100.00;102098.31;6371620;28;20043;-76
2022/06/14 06:24:55;;;;;;;4.82;2.08;;;;;;;11.84;100.00;102101.34;6371892;28;20043;-76
2022/06/14 06:28:02;;;;;;;2.08;1.35;;;;;;;11.87;100.00;102105.66;6378352;27;20043;-76
2022/06/14 06:31:08;;;;;;;3.10;1.58;;;;;;;11.94;100.00;102104.50;6371733;27;20043;-76
2022/06/14 06:34:13;;;;;;;11.35;2.28;;;;;;;12.02;100.00;102112.97;6370246;28;20062;-76
2022/06/14 06:37:20;;;;;;;4.47;1.83;;;;;;;12.11;100.00;102111.78;6370484;28;20112;-76
2022/06/14 06:40:23;;;;;;;1.88;1.40;;;;;;;12.12;100.00;102102.94;6369801;28;20437;-76
2022/06/14 06:43:27;;;;;;;3.33;1.40;;;;;;;12.21;100.00;102099.09;6364753;28;20047;-75
2022/06/14 06:46:35;;;;;;;2.97;1.55;;;;;;;12.30;100.00;102098.75;6356846;28;20131;-76
2022/06/14 06:49:47;;;;;;;2.00;1.60;;;;;;;12.37;100.00;102106.34;6371744;28;20043;-76
2022/06/14 06:53:11;;;;;;;5.63;2.08;;;;;;;12.44;100.00;102106.97;6371912;28;20054;-76
2022/06/14 06:56:16;;;;;;;5.00;1.65;;;;;;;12.50;100.00;102108.53;6371537;28;20524;-76
2022/06/14 06:59:26;;;;;;;3.00;1.40;;;;;;;12.57;100.00;102107.34;6372627;27;20047;-76
2022/06/14 07:02:33;;;;;;;2.83;1.42;;;;;;;12.66;100.00;102102.56;6371531;28;20043;-75
2022/06/14 07:05:34;;;;;;;2.67;1.38;;;;;;;12.75;100.00;102105.75;6371246;28;20054;-76
2022/06/14 07:08:44;;;;;;;1.92;1.58;;;;;;;12.85;100.00;102105.34;6371910;28;20054;-75
2022/06/14 07:11:50;;;;;;;2.45;1.10;;;;;;;12.97;100.00;102106.59;6370963;28;20039;-77
2022/06/14 07:14:56;;;;;;;1.80;1.13;;;;;;;13.10;100.00;102106.94;6371280;28;20490;-76
2022/06/14 07:18:05;;;;;;;5.00;1.17;;;;;;;13.20;100.00;102109.13;6371701;28;20055;-76
2022/06/14 07:21:09;;;;;;;;;;;;;;;13.29;100.00;102107.91;6371706;28;20054;-76
2022/06/14 07:24:17;;;;;;;1.42;0.63;;;;;;;13.37;100.00;102104.94;6370975;28;20009;-76
2022/06/14 07:27:25;;;;;;;0.98;0.88;;;;;;;13.45;100.00;102105.47;6375289;27;20054;-76
2022/06/14 07:30:30;;;;;;;3.50;1.60;;;;;;;13.54;99.88;102105.06;6376581;27;20109;-77
2022/06/14 07:33:32;;;;;;;4.45;1.13;;;;;;;13.43;97.04;102110.78;6376187;27;20054;-76
2022/06/14 07:36:48;;;;;;;3.10;1.10;;;;;;;13.50;96.03;102102.63;6375317;27;20047;-76
2022/06/14 07:39:58;;;;;;;7.82;2.00;;;;;;;13.62;94.19;102091.50;6375593;27;20054;-76
2022/06/14 07:43:06;;;;;;;0.80;0.80;;;;;;;13.77;92.91;102100.53;6375717;27;20047;-76
2022/06/14 07:46:12;;;;;;;6.18;1.02;;;;;;;13.83;93.24;102094.97;6375273;27;20054;-76
2022/06/14 07:49:20;;;;;;;2.72;1.05;;;;;;;13.96;90.53;102096.97;6375587;27;20051;-76
2022/06/14 07:52:27;;;;;;;3.47;1.27;;;;;;;14.06;89.82;102096.56;6375188;27;20410;-76
2022/06/14 07:55:36;;;;;;;1.10;1.00;;;;;;;14.07;86.57;102111.47;6375094;27;20495;-76
2022/06/14 07:58:43;;;;;;;2.22;0.80;;;;;;;14.12;83.02;102107.69;6375311;27;20054;-77
2022/06/14 08:01:52;;;;;;;4.45;0.75;;;;;;;14.11;81.10;102105.13;6384639;27;20043;-76
2022/06/14 08:04:56;;;;;;;0.77;0.70;;;;;;;14.20;80.99;102107.34;6400658;27;20057;-75
2022/06/14 08:08:03;;;;;;;1.08;0.93;;;;;;;14.16;81.43;102103.13;6400849;27;20053;-76
2022/06/14 08:11:10;;;;;;;2.90;0.80;;;;;;;14.13;84.50;102100.66;6400267;27;20402;-76
2022/06/14 08:14:17;;;;;;;8.27;0.82;;;;;;;14.11;83.47;102107.78;6400170;27;20073;-76
2022/06/14 08:17:30;;;;;;;4.43;1.20;;;;;;;14.20;83.84;102104.69;6400841;27;20046;-76
2022/06/14 08:20:38;;;;;;;2.83;1.10;;;;;;;14.40;82.89;102103.78;6400013;27;20631;-77
2022/06/14 08:23:44;;;;;;;4.35;0.90;;;;;;;14.49;81.99;102106.03;6400607;27;20053;-76
2022/06/14 08:26:51;;;;;;;4.00;0.82;;;;;;;14.52;80.52;102111.13;6400215;27;20489;-76
2022/06/14 08:29:58;;;;;;;1.13;1.00;;;;;;;14.43;79.00;102109.75;6383054;27;20051;-76
2022/06/14 08:33:06;;;;;;;6.10;1.13;;;;;;;14.38;80.04;102103.84;6374393;27;20043;-77
2022/06/14 08:36:11;;;;;;;6.55;1.00;;;;;;;14.36;79.70;102107.50;6374302;27;20055;-76
2022/06/14 08:39:18;;;;;;;5.65;1.17;;;;;;;14.42;78.43;102100.13;6373933;27;20066;-77
2022/06/14 08:42:29;;;;;;;0.60;0.57;;;;;;;14.58;76.19;102094.09;6373934;27;20088;-76
2022/06/14 08:45:37;;;;;;;2.40;0.60;;;;;;;14.81;73.98;102104.44;6373872;27;20054;-77
2022/06/14 08:48:41;;;;;;;0.95;0.60;;;;;;;14.89;73.38;102106.69;6374370;27;20070;-76
2022/06/14 08:52:05;;;;;;;5.18;0.70;;;;;;;14.89;67.42;102112.00;6374116;27;20483;-78
2022/06/14 08:55:21;;;;;;;4.03;0.77;;;;;;;14.71;67.58;102101.38;6374127;27;20043;-78
2022/06/14 08:59:07;;;;;;;0.85;0.40;;;;;;;14.65;67.89;102108.75;6374942;27;20051;-77
2022/06/14 09:02:30;;;;;;;1.58;0.65;;;;;;;14.64;69.98;102107.91;6399368;27;20053;-76
2022/06/14 09:06:04;;;;;;;2.95;1.08;;;;;;;14.68;69.96;102104.19;6399276;27;20046;-76
2022/06/14 09:09:39;;;;;;;4.35;1.13;;;;;;;14.65;68.29;102095.53;6399660;27;20051;-77
2022/06/14 09:13:22;;;;;;;0.68;0.68;;;;;;;14.75;68.87;102090.66;6398903;27;20054;-77
2022/06/14 09:16:42;;;;;;;2.90;0.85;;;;;;;14.90;70.37;102084.63;6361299;27;20043;-77
2022/06/14 09:20:01;;;;;;;2.63;0.52;;;;;;;15.03;64.51;102084.81;6399008;27;20051;-78
2022/06/14 09:23:17;;;;;;;0.90;0.57;;;;;;;15.20;60.47;102075.09;6398991;27;20049;-77
2022/06/14 09:26:32;;;;;;;1.08;0.50;;;;;;;15.35;60.83;102073.47;6398602;27;20198;-77
2022/06/14 09:29:58;;;;;;;3.95;1.35;;;;;;;15.59;62.57;102073.09;6397199;27;20054;-77
2022/06/14 09:33:35;;;;;;;2.05;0.50;;;;;;;15.82;60.82;102085.16;6398666;27;20553;-76
2022/06/14 09:37:07;;;;;;;0.52;0.35;;;;;;;15.72;60.74;102083.00;6380935;27;20051;-79
2022/06/14 09:40:30;;;;;;;1.10;0.60;;;;;;;15.70;62.38;102087.50;6398456;27;20055;-72
2022/06/14 09:43:54;;;;;;;2.72;0.80;;;;;;;15.59;60.63;102084.56;6398466;27;20078;-75
2022/06/14 09:47:16;;;;;;;1.77;0.85;;;;;;;15.47;59.07;102087.84;6398792;27;20058;-74
2022/06/14 09:50:51;;;;;;;0.57;0.50;;;;;;;15.48;59.78;102087.75;6396932;27;20077;-74
2022/06/14 09:54:33;;;;;;;1.73;0.63;;;;;;;15.55;59.25;102080.34;6371232;27;20058;-75
2022/06/14 09:57:46;;;;;;;1.33;0.45;;;;;;;15.68;60.77;102080.59;6398132;27;20054;-74
2022/06/14 10:00:53;;;;;;;2.15;0.95;;;;;;;15.92;59.31;102084.56;6395891;27;20053;-74
2022/06/14 10:04:25;;;;;;;1.35;0.50;;;;;;;16.31;59.32;102082.47;6346522;28;20047;-74
2022/06/14 10:07:41;;;;;;;1.80;0.60;;;;;;;16.43;55.44;102079.94;6347064;28;20062;-74
2022/06/14 10:10:52;;;;;;;2.90;0.80;;;;;;;16.50;58.97;102080.47;6346165;28;20044;-75
2022/06/14 10:14:30;;;;;;;2.20;0.47;;;;;;;16.44;59.63;102081.69;6346293;28;20448;-74
2022/06/14 10:18:02;;;;;;;6.15;0.85;;;;;;;16.28;59.94;102075.53;6314498;28;20426;-74
2022/06/14 10:21:10;;;;;;;2.03;0.35;;;;;;;16.19;59.46;102078.69;6346060;28;20068;-75
2022/06/14 10:24:23;;;;;;;7.20;0.80;;;;;;;16.01;58.96;102079.69;6346482;28;20052;-75
2022/06/14 10:31:07;;;;;;;3.35;0.50;;;;;;;16.32;59.64;102068.25;6387682;27;20043;-75
2022/06/14 10:34:15;;;;;;;4.63;0.85;;;;;;;16.50;59.28;102072.50;6397677;27;20417;-74
2022/06/14 10:37:30;;;;;;;1.17;0.68;;;;;;;16.69;59.26;102059.88;6397639;27;20051;-74
2022/06/14 10:40:50;;;;;;;1.25;0.40;;;;;;;16.91;57.43;102066.63;6397410;27;20050;-75
2022/06/14 10:43:56;;;;;;;2.40;0.63;;;;;;;17.29;58.37;102071.47;6397136;27;20050;-75
2022/06/14 10:47:06;;;;;;;1.92;0.60;;;;;;;17.48;53.79;102064.91;6397756;27;20047;-75
2022/06/14 10:50:22;;;;;;;3.05;0.85;;;;;;;17.45;53.13;102062.47;6396980;27;20050;-75
2022/06/14 10:53:36;;;;;;;0.75;0.43;;;;;;;17.14;55.29;102071.44;6397410;27;20047;-76
2022/06/14 10:57:09;;;;;;;2.15;0.75;;;;;;;16.77;56.41;102071.91;6397013;27;20176;-75
2022/06/14 11:00:18;;;;;;;4.13;0.80;;;;;;;16.84;57.30;102070.59;6389003;27;20049;-76
2022/06/14 11:03:35;;;;;;;4.05;0.65;;;;;;;17.10;57.79;102069.06;6402760;27;20043;-75
2022/06/14 11:07:25;;;;;;;2.10;0.63;;;;;;;17.60;56.25;102068.63;6401911;27;20050;-77
2022/06/14 11:10:38;;;;;;;2.72;1.00;;;;;;;17.80;54.67;102071.88;6365686;27;20630;-75
2022/06/14 11:13:53;;;;;;;1.05;0.77;;;;;;;17.82;54.18;102060.22;6402053;27;20402;-75
2022/06/14 11:17:15;;;;;;;1.75;0.63;;;;;;;17.56;54.64;102060.94;6402211;27;20055;-75
2022/06/14 11:20:28;;;;;;;1.50;0.88;;;;;;;17.66;53.89;102057.63;6401883;27;20055;-75
2022/06/14 11:23:39;;;;;;;4.00;0.98;;;;;;;17.68;53.09;102058.38;6401882;27;20047;-76
2022/06/14 11:26:49;;;;;;;2.88;0.60;;;;;;;17.58;54.47;102051.94;6401749;27;20046;-76
2022/06/14 11:30:05;;;;;;;7.13;0.93;;;;;;;17.60;53.60;102049.19;6384315;27;20051;-75
2022/06/14 11:33:13;;;;;;;6.68;1.02;;;;;;;17.59;53.98;102047.47;6376173;27;20047;-76
2022/06/14 11:36:38;;;;;;;1.85;0.88;;;;;;;17.36;53.63;102046.25;6375349;27;20043;-75
2022/06/14 11:39:44;;;;;;;3.83;1.27;;;;;;;17.21;55.08;102040.03;6375608;27;20039;-75
2022/06/14 11:43:01;;;;;;;3.83;1.10;;;;;;;17.44;53.80;102047.47;6375768;27;20047;-70
2022/06/14 11:46:13;;;;;;;1.52;0.70;;;;;;;17.42;54.41;102044.03;6375507;27;20051;-75
2022/06/14 11:49:17;;;;;;;1.90;0.85;;;;;;;17.96;53.11;102048.72;6375757;27;20051;-76
2022/06/14 11:52:56;;;;;;;3.10;0.80;;;;;;;18.47;53.04;102038.28;6375056;27;20046;-75
2022/06/14 11:56:03;;;;;;;3.25;1.00;;;;;;;18.80;52.10;102034.34;6356043;27;20047;-75
2022/06/14 11:59:34;;;;;;;2.45;0.70;;;;;;;19.06;51.66;102033.44;6379494;27;20050;-75
2022/06/14 12:02:42;;;;;;;1.40;0.68;;;;;;;18.95;50.49;102031.53;6400606;27;20391;-76
2022/06/14 12:05:49;;;;;;;2.35;0.70;;;;;;;18.42;51.71;102035.94;6400565;27;20047;-76
2022/06/14 12:09:08;;;;;;;3.10;1.00;;;;;;;18.30;54.15;102031.41;6382168;27;20047;-76
2022/06/14 12:12:15;;;;;;;;;;;;;;;18.33;52.61;102041.84;6374391;27;20459;-75
2022/06/14 12:15:20;;;;;;;3.53;0.90;;;;;;;18.30;53.46;102034.06;6374131;27;20386;-75
2022/06/14 12:18:28;;;;;;;2.63;0.80;;;;;;;19.10;53.41;102026.94;6374619;27;20058;-75
2022/06/14 12:21:38;;;;;;;3.95;0.50;;;;;;;19.73;50.89;102022.56;6373993;27;20055;-76
2022/06/14 12:28:06;;;;;;;2.78;0.80;;;;;;;20.74;46.56;102023.97;6374801;27;20051;-76
2022/06/14 12:31:14;;;;;;;3.80;0.80;;;;;;;20.51;45.84;102020.38;6375365;27;20050;-75
2022/06/14 12:34:22;;;;;;;5.25;0.80;;;;;;;20.56;46.45;102019.19;6374223;27;20092;-76
2022/06/14 12:37:33;;;;;;;1.25;0.75;;;;;;;20.77;45.15;102013.06;6374615;27;20055;-75
2022/06/14 12:40:44;;;;;;;6.40;0.75;;;;;;;20.69;45.86;102010.13;6373948;27;20413;-76
2022/06/14 12:44:02;;;;;;;1.33;0.60;;;;;;;20.82;45.86;101996.69;6373992;27;20044;-76
2022/06/14 12:47:07;;;;;;;1.55;0.90;;;;;;;21.07;45.66;102005.47;6374167;27;20435;-76
2022/06/14 12:50:16;;;;;;;1.65;0.80;;;;;;;21.12;45.55;102000.63;6373876;27;20073;-76
2022/06/14 12:53:22;;;;;;;5.15;1.05;;;;;;;21.08;44.89;102000.03;6373763;27;20413;-76
2022/06/14 12:56:31;;;;;;;4.00;0.88;;;;;;;21.05;44.96;102000.25;6373697;27;20391;-76
2022/06/14 12:59:40;;;;;;;2.63;0.75;;;;;;;20.73;43.98;101992.06;6374812;27;20055;-76
2022/06/14 13:02:50;;;;;;;1.65;0.63;;;;;;;20.82;45.74;101977.97;6373651;27;20079;-75
2022/06/14 13:05:58;;;;;;;2.72;0.98;;;;;;;21.56;46.00;101980.25;6372419;27;20509;-76
2022/06/14 13:09:06;;;;;;;3.83;0.73;;;;;;;21.28;44.24;101975.25;6373638;27;20417;-76
2022/06/14 13:12:18;;;;;;;4.17;1.50;;;;;;;21.45;43.74;101975.75;6373077;27;20043;-76
2022/06/14 13:15:32;;;;;;;1.40;0.60;;;;;;;20.83;44.45;101973.50;6373432;27;20053;-76
2022/06/14 13:18:49;;;;;;;1.20;0.50;;;;;;;20.98;45.68;101957.13;6373411;27;20051;-76
2022/06/14 13:22:09;;;;;;;1.10;0.60;;;;;;;20.89;45.17;101965.88;6373071;27;20043;-77
2022/06/14 13:25:23;;;;;;;3.33;0.70;;;;;;;21.15;43.87;101960.28;6372423;27;20045;-75
2022/06/14 13:28:38;;;;;;;3.60;0.90;;;;;;;21.78;44.17;101966.84;6373054;27;20047;-75
2022/06/14 13:31:54;;;;;;;1.13;0.70;;;;;;;21.93;41.44;101970.09;6373915;27;20513;-76
2022/06/14 13:35:08;;;;;;;2.95;1.02;;;;;;;21.63;42.66;101957.38;6372620;27;20486;-75
2022/06/14 13:38:15;;;;;;;2.78;0.82;;;;;;;20.98;44.77;101957.13;6373025;27;20097;-76
2022/06/14 13:41:26;;;;;;;2.92;1.10;;;;;;;20.76;46.31;101967.78;6372681;27;20050;-78
2022/06/14 13:44:34;;;;;;;3.58;0.95;;;;;;;20.73;44.86;101950.16;6372450;27;20047;-76
2022/06/14 13:47:43;;;;;;;1.50;0.87;;;;;;;20.65;45.67;101954.38;6373000;27;20583;-76
2022/06/14 13:50:51;;;;;;;1.77;0.85;;;;;;;20.81;46.15;101949.56;6372510;27;20055;-75
2022/06/14 13:54:02;;;;;;;3.83;0.60;;;;;;;21.35;46.29;101948.03;6372322;27;20049;-76
2022/06/14 13:57:22;;;;;;;1.67;0.93;;;;;;;21.47;44.18;101942.56;6372940;27;20051;-76
2022/06/14 14:00:29;;;;;;;2.97;0.70;;;;;;;21.41;44.44;101940.38;6372275;27;20051;-76
2022/06/14 14:03:40;;;;;;;1.13;0.88;;;;;;;21.12;44.08;101937.34;6396738;27;20070;-76
2022/06/14 14:06:47;;;;;;;1.70;1.02;;;;;;;20.56;46.58;101942.56;6398228;27;20043;-76
2022/06/14 14:10:14;;;;;;;3.80;0.60;;;;;;;20.69;46.56;101932.66;6398170;27;20058;-76
2022/06/14 14:13:25;;;;;;;2.38;1.00;;;;;;;20.67;46.07;101928.41;6398104;27;20054;-76
2022/06/14 14:16:33;;;;;;;1.77;0.70;;;;;;;20.93;46.64;101932.56;6397648;27;20054;-77
2022/06/14 14:19:47;;;;;;;0.88;0.63;;;;;;;21.25;44.75;101924.66;6397883;27;20602;-76
2022/06/14 14:22:55;;;;;;;4.78;0.90;;;;;;;21.37;45.03;101927.38;6397946;27;20046;-76
2022/06/14 14:26:03;;;;;;;1.00;0.85;;;;;;;21.87;42.97;101928.63;6397613;27;20050;-77
2022/06/14 14:29:12;;;;;;;5.45;1.40;;;;;;;21.56;44.28;101926.75;6397739;27;20050;-76
2022/06/14 14:32:20;;;;;;;3.70;1.40;;;;;;;21.23;44.41;101923.94;6396051;27;20413;-76
2022/06/14 14:35:26;;;;;;;3.90;1.00;;;;;;;21.57;44.08;101920.41;6397819;27;20074;-76
2022/06/14 14:38:32;;;;;;;4.00;0.93;;;;;;;21.94;44.92;101908.41;6403339;27;20050;-76
2022/06/14 14:41:42;;;;;;;4.55;0.80;;;;;;;21.73;43.56;101905.66;6402983;27;20057;-76
2022/06/14 14:44:47;;;;;;;1.13;0.63;;;;;;;21.56;44.14;101902.66;6402968;27;20137;-77
2022/06/14 14:47:56;;;;;;;1.08;0.52;;;;;;;21.45;43.11;101901.72;6402730;27;20042;-77
2022/06/14 14:51:00;;;;;;;;;;;;;;;21.47;43.86;101901.59;6403091;27;20047;-76
2022/06/14 14:54:06;;;;;;;4.45;0.77;;;;;;;21.74;43.96;101904.69;6402304;27;20510;-75
2022/06/14 14:57:15;;;;;;;1.27;0.80;;;;;;;22.06;41.62;101898.50;6402929;27;20046;-76